CheckWX is a tool to help pilots better visualize weather data.  It is not intended as a substitute for an official pre-flight weather briefing.

17:56:05 UTC

FKYS TAF
Yaoundé Nsimalen International Airport
Yaoundé, Cameroon
TAF FKYS 211700Z 2118/2218 26005KT 9999 BKN013 BECMG 2121/2123 BKN006 TEMPO 2203/2207 3000 BR BECMG 2208/2210 BKN016

Nov-21@
18:00 UTC

Nov-21 @ 18:00 UTC

Nov-21@
21:00 UTC

Nov-21 @ 21:00 UTC

TAF FKYS 211700Z 2118/2218 26005KT 9999 BKN013
Wind
  • 260° at 5 KTS
Cloud Levels
  • Broken at 1,300' AGL

Nov-21@
21:00 UTC

Nov-21 @ 21:00 UTC

Nov-22@
08:00 UTC

Nov-22 @ 08:00 UTC

BECMG 2121/2123 BKN006

Becoming

Becoming Conditions expected by Thu, Nov 21, 2019 @ 23:00 UTC

Wind
  • 260° at 5 KTS
Cloud Levels
  • Broken at 600' AGL

Nov-22@
03:00 UTC

Nov-22 @ 03:00 UTC

Nov-22@
07:00 UTC

Nov-22 @ 07:00 UTC

TEMPO 2203/2207 3000 BR

Temporary

Temporary Changes expected for less than half the time period

Conditions
Mist

Nov-22@
08:00 UTC

Nov-22 @ 08:00 UTC

Nov-22@
18:00 UTC

Nov-22 @ 18:00 UTC

BECMG 2208/2210 BKN016

Becoming

Becoming Conditions expected by Fri, Nov 22, 2019 @ 10:00 UTC

Wind
  • 260° at 5 KTS
Cloud Levels
  • Broken at 1,600' AGL